0.700 kWh

EHAM AMSTERDAM/SCHIPHOL NLD -3 m.
METAR EHAM 192225Z 06018KT 030V090 9999 FEW020 04/01 Q1017 NOSIG

EHAM AMSTERDAM/SCHIPHOL NLD -3 m.
TAF EHAM 191711Z 1918/2024 08018KT 9999 SCT022 SCT040
TEMPO 2008/2016 09020G32KT
BECMG 2016/2018 09015KT